Time;durP1;ratioP1;P1;durP2;ratioP2;P2;SDS_P1;SDS_P2;PMS_P1;PMS_P2;Temp;Humidity;BMP_temperature;BMP_pressure;BME280_temperature;BME280_humidity;BME280_pressure;Samples;Min_cycle;Max_cycle;Signal;HPM_P1;HPM_P2
2023/07/02 00:02:36;;;;;;;3.08;2.88;;;;;;;;;;5978248;29;20509;-70
2023/07/02 00:05:40;;;;;;;3.92;3.08;;;;;;;;;;5978506;29;20256;-69
2023/07/02 00:08:45;;;;;;;3.00;2.97;;;;;;;;;;5977998;29;20245;-69
2023/07/02 00:11:50;;;;;;;3.42;3.10;;;;;;;;;;5978486;29;20261;-69
2023/07/02 00:14:56;;;;;;;3.45;2.97;;;;;;;;;;5977801;29;20272;-68
2023/07/02 00:18:01;;;;;;;2.70;2.60;;;;;;;;;;5978244;29;20248;-69
2023/07/02 00:21:07;;;;;;;3.22;2.92;;;;;;;;;;5977971;29;20245;-69
2023/07/02 00:24:12;;;;;;;2.55;2.45;;;;;;;;;;5977882;29;20244;-69
2023/07/02 00:27:16;;;;;;;2.38;2.38;;;;;;;;;;5978131;29;20266;-69
2023/07/02 00:30:22;;;;;;;2.83;2.80;;;;;;;;;;5977805;29;20286;-69
2023/07/02 00:33:28;;;;;;;2.65;2.60;;;;;;;;;;5961513;29;20328;-69
2023/07/02 00:36:33;;;;;;;3.47;2.40;;;;;;;;;;5977623;29;20268;-69
2023/07/02 00:39:38;;;;;;;2.47;2.38;;;;;;;;;;5977507;29;20248;-69
2023/07/02 00:42:42;;;;;;;2.80;2.60;;;;;;;;;;5977271;29;20240;-68
2023/07/02 00:45:48;;;;;;;2.60;2.60;;;;;;;;;;5976799;29;20279;-69
2023/07/02 00:48:54;;;;;;;3.15;2.80;;;;;;;;;;5991339;29;20276;-68
2023/07/02 00:51:59;;;;;;;3.03;2.92;;;;;;;;;;5991203;29;20397;-69
2023/07/02 00:55:04;;;;;;;3.20;2.95;;;;;;;;;;5961226;29;20452;-70
2023/07/02 00:58:09;;;;;;;3.88;3.08;;;;;;;;;;5970518;29;20245;-69
2023/07/02 01:01:18;;;;;;;3.85;3.35;;;;;;;;;;5961390;29;20292;-69
2023/07/02 01:04:27;;;;;;;2.90;2.80;;;;;;;;;;5977183;29;20248;-69
2023/07/02 01:07:34;;;;;;;2.60;2.50;;;;;;;;;;5977120;29;20276;-68
2023/07/02 01:10:39;;;;;;;2.80;2.70;;;;;;;;;;5977558;29;20337;-68
2023/07/02 01:13:44;;;;;;;2.58;2.50;;;;;;;;;;5977127;29;20261;-68
2023/07/02 01:16:51;;;;;;;2.83;2.63;;;;;;;;;;5977379;29;20417;-68
2023/07/02 01:19:59;;;;;;;3.10;2.90;;;;;;;;;;5983287;29;20271;-69
2023/07/02 01:23:04;;;;;;;3.42;3.13;;;;;;;;;;5983401;29;20295;-68
2023/07/02 01:26:09;;;;;;;3.30;3.05;;;;;;;;;;6000157;29;20247;-69
2023/07/02 01:29:17;;;;;;;3.17;2.72;;;;;;;;;;5999935;29;20261;-68
2023/07/02 01:32:22;;;;;;;3.50;3.00;;;;;;;;;;5999730;29;20373;-68
2023/07/02 01:35:30;;;;;;;3.13;2.92;;;;;;;;;;5999419;29;20255;-68
2023/07/02 01:38:35;;;;;;;3.30;3.10;;;;;;;;;;5998561;29;20291;-69
2023/07/02 01:41:44;;;;;;;3.58;3.05;;;;;;;;;;5999308;29;20421;-69
2023/07/02 01:44:51;;;;;;;3.33;2.90;;;;;;;;;;5999763;29;20492;-69
2023/07/02 01:47:55;;;;;;;3.58;2.97;;;;;;;;;;6000447;29;20551;-69
2023/07/02 01:51:02;;;;;;;4.95;3.25;;;;;;;;;;5983098;29;20512;-68
2023/07/02 01:54:06;;;;;;;3.22;3.03;;;;;;;;;;6003649;29;20247;-69
2023/07/02 01:57:12;;;;;;;3.40;3.30;;;;;;;;;;6003480;29;20283;-69
2023/07/02 02:00:17;;;;;;;4.13;2.95;;;;;;;;;;6001997;29;20347;-69
2023/07/02 02:03:22;;;;;;;4.55;3.00;;;;;;;;;;6011194;29;20439;-68
2023/07/02 02:06:28;;;;;;;3.42;2.75;;;;;;;;;;6001223;29;20312;-69
2023/07/02 02:09:33;;;;;;;2.92;2.83;;;;;;;;;;5981036;29;20477;-69
2023/07/02 02:12:38;;;;;;;3.85;2.97;;;;;;;;;;5980474;29;20248;-70
2023/07/02 02:15:43;;;;;;;3.22;3.03;;;;;;;;;;5979998;29;20480;-69
2023/07/02 02:18:51;;;;;;;5.03;3.10;;;;;;;;;;5993670;29;20468;-68
2023/07/02 02:21:58;;;;;;;3.20;3.10;;;;;;;;;;5980302;29;20268;-68
2023/07/02 02:25:03;;;;;;;3.03;2.92;;;;;;;;;;5994285;29;20288;-69
2023/07/02 02:28:08;;;;;;;2.90;2.83;;;;;;;;;;5980518;29;20245;-69
2023/07/02 02:31:12;;;;;;;3.65;3.30;;;;;;;;;;5993902;29;20460;-69
2023/07/02 02:34:17;;;;;;;4.05;3.20;;;;;;;;;;5964358;29;20280;-68
2023/07/02 02:37:24;;;;;;;2.70;2.70;;;;;;;;;;5963941;29;20319;-69
2023/07/02 02:40:29;;;;;;;3.13;2.97;;;;;;;;;;5964022;29;20272;-69
2023/07/02 02:43:33;;;;;;;4.05;2.95;;;;;;;;;;5993753;29;20288;-69
2023/07/02 02:46:39;;;;;;;4.13;3.10;;;;;;;;;;5964073;29;20280;-68
2023/07/02 02:49:44;;;;;;;3.35;3.10;;;;;;;;;;5963778;29;20279;-70
2023/07/02 02:52:50;;;;;;;3.25;3.05;;;;;;;;;;5963305;29;20293;-70
2023/07/02 02:55:55;;;;;;;2.90;2.90;;;;;;;;;;5993425;29;20287;-69
2023/07/02 02:58:59;;;;;;;3.45;3.25;;;;;;;;;;5979757;29;20498;-69
2023/07/02 03:02:04;;;;;;;2.90;2.90;;;;;;;;;;5992857;29;20288;-69
2023/07/02 03:05:10;;;;;;;3.13;3.03;;;;;;;;;;5961937;29;20264;-68
2023/07/02 03:08:16;;;;;;;3.22;3.13;;;;;;;;;;5970954;29;20272;-69
2023/07/02 03:11:20;;;;;;;3.33;3.15;;;;;;;;;;5992943;29;20440;-70
2023/07/02 03:14:25;;;;;;;2.92;2.83;;;;;;;;;;5985678;29;20283;-69
2023/07/02 03:17:30;;;;;;;2.97;2.80;;;;;;;;;;6023251;29;20290;-69
2023/07/02 03:20:34;;;;;;;2.88;2.78;;;;;;;;;;6024353;29;20431;-69
2023/07/02 03:23:41;;;;;;;3.45;3.15;;;;;;;;;;6024946;29;20247;-68
2023/07/02 03:26:45;;;;;;;3.30;2.97;;;;;;;;;;6024534;29;20247;-70
2023/07/02 03:29:50;;;;;;;2.90;2.80;;;;;;;;;;6024199;29;20314;-69
2023/07/02 03:32:55;;;;;;;2.88;2.70;;;;;;;;;;6024344;29;20247;-68
2023/07/02 03:35:59;;;;;;;3.63;3.42;;;;;;;;;;6024310;29;20251;-69
2023/07/02 03:39:05;;;;;;;3.35;3.17;;;;;;;;;;6023784;29;20279;-68
2023/07/02 03:42:13;;;;;;;3.50;3.03;;;;;;;;;;6023802;29;20246;-69
2023/07/02 03:45:18;;;;;;;3.47;2.95;;;;;;;;;;6023705;29;20323;-69
2023/07/02 03:48:22;;;;;;;3.65;3.20;;;;;;;;;;6023634;29;20247;-69
2023/07/02 03:51:27;;;;;;;3.58;3.35;;;;;;;;;;6024336;29;20255;-70
2023/07/02 03:54:33;;;;;;;3.35;3.25;;;;;;;;;;6023647;29;20528;-69
2023/07/02 03:57:38;;;;;;;3.75;3.47;;;;;;;;;;6023595;29;20271;-69
2023/07/02 04:00:44;;;;;;;3.50;3.30;;;;;;;;;;6023383;29;20251;-70
2023/07/02 04:03:50;;;;;;;3.17;3.08;;;;;;;;;;6023566;29;20254;-69
2023/07/02 04:06:55;;;;;;;3.05;3.05;;;;;;;;;;6017601;29;20248;-68
2023/07/02 04:10:01;;;;;;;3.65;3.35;;;;;;;;;;6001050;29;20494;-69
2023/07/02 04:13:05;;;;;;;3.53;3.42;;;;;;;;;;6000387;29;20243;-70
2023/07/02 04:16:10;;;;;;;3.17;2.97;;;;;;;;;;6000023;29;20295;-69
2023/07/02 04:19:15;;;;;;;3.47;3.17;;;;;;;;;;6000238;29;20271;-69
2023/07/02 04:22:19;;;;;;;3.13;2.92;;;;;;;;;;6000556;29;20244;-68
2023/07/02 04:25:25;;;;;;;3.30;3.20;;;;;;;;;;6014614;29;20418;-69
2023/07/02 04:28:50;;;;;;;3.60;3.30;;;;;;;;;;6000882;29;20243;-69
2023/07/02 04:31:55;;;;;;;3.45;3.28;;;;;;;;;;6000463;29;20243;-68
2023/07/02 04:34:59;;;;;;;3.33;3.22;;;;;;;;;;5983910;29;20451;-70
2023/07/02 04:38:04;;;;;;;3.10;2.80;;;;;;;;;;6000497;29;20271;-68
2023/07/02 04:41:10;;;;;;;3.53;3.38;;;;;;;;;;6000092;29;20247;-69
2023/07/02 04:44:14;;;;;;;3.55;3.25;;;;;;;;;;6000466;29;20251;-68
2023/07/02 04:47:19;;;;;;;3.10;3.00;;;;;;;;;;6000053;29;20389;-69
2023/07/02 04:50:24;;;;;;;3.22;3.13;;;;;;;;;;5999962;29;20323;-70
2023/07/02 04:53:28;;;;;;;2.90;2.90;;;;;;;;;;6000216;29;20260;-70
2023/07/02 04:56:34;;;;;;;3.28;3.08;;;;;;;;;;5999873;29;20244;-68
2023/07/02 04:59:39;;;;;;;3.28;3.17;;;;;;;;;;6000251;29;20271;-70
2023/07/02 05:02:43;;;;;;;3.42;3.22;;;;;;;;;;5999835;29;20252;-68
2023/07/02 05:05:48;;;;;;;3.33;3.22;;;;;;;;;;6000228;29;20252;-69
2023/07/02 05:08:52;;;;;;;3.42;3.10;;;;;;;;;;6019780;29;20255;-70
2023/07/02 05:11:59;;;;;;;3.00;2.88;;;;;;;;;;6022210;29;20247;-69
2023/07/02 05:15:04;;;;;;;3.03;2.92;;;;;;;;;;6022210;29;20570;-69
2023/07/02 05:18:09;;;;;;;2.95;2.95;;;;;;;;;;6015670;29;20267;-69
2023/07/02 05:21:13;;;;;;;3.15;3.05;;;;;;;;;;6022547;29;20255;-70
2023/07/02 05:24:18;;;;;;;3.40;3.22;;;;;;;;;;6022442;29;20250;-69
2023/07/02 05:27:24;;;;;;;3.30;3.20;;;;;;;;;;6022833;29;20409;-69
2023/07/02 05:30:28;;;;;;;3.38;3.30;;;;;;;;;;6027129;29;20247;-69
2023/07/02 05:33:33;;;;;;;3.38;3.20;;;;;;;;;;6026962;29;20334;-69
2023/07/02 05:36:38;;;;;;;3.40;3.10;;;;;;;;;;6026377;29;20278;-69
2023/07/02 05:39:43;;;;;;;3.55;3.35;;;;;;;;;;6026315;29;20270;-69
2023/07/02 05:42:49;;;;;;;3.03;2.92;;;;;;;;;;6026244;29;20251;-69
2023/07/02 05:45:53;;;;;;;3.20;3.00;;;;;;;;;;6026575;29;20520;-69
2023/07/02 05:48:59;;;;;;;2.95;2.85;;;;;;;;;;6026654;29;20256;-69
2023/07/02 05:52:04;;;;;;;2.70;2.70;;;;;;;;;;6009564;29;20270;-70
2023/07/02 05:55:10;;;;;;;2.80;2.70;;;;;;;;;;6026332;29;20247;-69
2023/07/02 05:58:16;;;;;;;2.72;2.63;;;;;;;;;;6026397;29;20247;-68
2023/07/02 06:01:21;;;;;;;2.60;2.50;;;;;;;;;;6026500;29;20290;-69
2023/07/02 06:04:26;;;;;;;2.58;2.55;;;;;;;;;;6025813;29;20411;-70
2023/07/02 06:07:30;;;;;;;2.60;2.60;;;;;;;;;;6016156;29;20264;-68
2023/07/02 06:10:35;;;;;;;2.95;2.75;;;;;;;;;;6004506;29;20251;-69
2023/07/02 06:13:41;;;;;;;2.80;2.70;;;;;;;;;;6004177;29;20240;-68
2023/07/02 06:16:45;;;;;;;2.75;2.70;;;;;;;;;;6004011;29;20291;-71
2023/07/02 06:19:50;;;;;;;2.67;2.47;;;;;;;;;;6003181;29;20306;-68
2023/07/02 06:22:54;;;;;;;2.47;2.47;;;;;;;;;;6002956;29;20296;-68
2023/07/02 06:26:01;;;;;;;2.63;2.53;;;;;;;;;;5986753;29;20279;-69
2023/07/02 06:29:07;;;;;;;2.40;2.40;;;;;;;;;;6002940;29;20243;-69
2023/07/02 06:32:11;;;;;;;2.53;2.45;;;;;;;;;;6002407;29;20501;-68
2023/07/02 06:35:16;;;;;;;2.55;2.30;;;;;;;;;;6002481;29;20252;-71
2023/07/02 06:38:21;;;;;;;2.30;2.30;;;;;;;;;;6001378;29;20276;-69
2023/07/02 06:41:25;;;;;;;2.20;2.20;;;;;;;;;;6002356;29;20458;-68
2023/07/02 06:44:31;;;;;;;3.42;2.63;;;;;;;;;;6002780;29;20347;-70
2023/07/02 06:47:36;;;;;;;3.45;2.38;;;;;;;;;;6002300;29;20446;-69
2023/07/02 06:50:43;;;;;;;3.00;2.78;;;;;;;;;;6002033;29;20255;-69
2023/07/02 06:53:48;;;;;;;2.30;2.30;;;;;;;;;;6002495;29;20244;-69
2023/07/02 06:56:53;;;;;;;2.78;2.78;;;;;;;;;;6002433;29;20536;-69
2023/07/02 07:00:00;;;;;;;2.60;2.60;;;;;;;;;;6002051;29;20454;-70
2023/07/02 07:03:05;;;;;;;2.33;2.22;;;;;;;;;;6002479;29;20252;-69
2023/07/02 07:06:10;;;;;;;2.80;2.60;;;;;;;;;;6003216;29;20243;-69
2023/07/02 07:09:14;;;;;;;2.70;2.30;;;;;;;;;;6002165;29;20252;-69
2023/07/02 07:12:19;;;;;;;2.85;2.67;;;;;;;;;;6002095;29;20260;-71
2023/07/02 07:15:25;;;;;;;2.83;2.72;;;;;;;;;;6002000;29;20315;-69
2023/07/02 07:18:29;;;;;;;3.90;3.67;;;;;;;;;;6001426;29;20243;-69
2023/07/02 07:21:36;;;;;;;3.47;3.17;;;;;;;;;;6001944;29;20456;-68
2023/07/02 07:24:43;;;;;;;3.80;3.50;;;;;;;;;;6001675;29;20515;-69
2023/07/02 07:27:47;;;;;;;3.10;3.00;;;;;;;;;;6001400;29;20276;-69
2023/07/02 07:30:53;;;;;;;3.30;3.10;;;;;;;;;;6001243;29;20248;-69
2023/07/02 07:33:58;;;;;;;2.92;2.88;;;;;;;;;;6001329;29;20256;-70
2023/07/02 07:37:03;;;;;;;2.83;2.83;;;;;;;;;;6001506;29;20513;-69
2023/07/02 07:40:09;;;;;;;3.40;3.10;;;;;;;;;;6001095;29;20455;-69
2023/07/02 07:43:13;;;;;;;3.13;2.97;;;;;;;;;;6000903;29;20247;-70
2023/07/02 07:46:19;;;;;;;2.90;2.78;;;;;;;;;;6000804;29;20247;-69
2023/07/02 07:49:28;;;;;;;13.63;6.30;;;;;;;;;;6000315;29;20240;-70
2023/07/02 07:52:32;;;;;;;301.80;9.90;;;;;;;;;;6000995;29;20492;-70
2023/07/02 07:55:37;;;;;;;5.72;3.40;;;;;;;;;;6001312;29;20328;-69
2023/07/02 07:58:41;;;;;;;4.00;3.63;;;;;;;;;;6000558;29;20259;-70
2023/07/02 08:01:47;;;;;;;10.30;4.88;;;;;;;;;;6000830;29;20287;-69
2023/07/02 08:04:52;;;;;;;5.22;4.20;;;;;;;;;;6001015;29;20259;-70
2023/07/02 08:07:57;;;;;;;4.00;3.78;;;;;;;;;;5987685;29;20314;-69
2023/07/02 08:11:01;;;;;;;3.88;3.60;;;;;;;;;;5978994;29;20260;-68
2023/07/02 08:14:06;;;;;;;4.20;4.00;;;;;;;;;;5981368;29;20249;-68
2023/07/02 08:17:12;;;;;;;4.00;3.70;;;;;;;;;;5980813;29;20318;-69
2023/07/02 08:20:17;;;;;;;4.30;4.20;;;;;;;;;;5981503;29;20272;-69
2023/07/02 08:23:21;;;;;;;4.50;4.20;;;;;;;;;;5981230;29;20248;-69
2023/07/02 08:26:26;;;;;;;4.40;4.30;;;;;;;;;;5979869;29;20252;-68
2023/07/02 08:29:30;;;;;;;5.13;4.78;;;;;;;;;;5979885;29;20256;-69
2023/07/02 08:32:37;;;;;;;9.60;5.45;;;;;;;;;;5978412;29;20248;-69
2023/07/02 08:35:41;;;;;;;4.72;4.13;;;;;;;;;;5977931;29;20256;-70
2023/07/02 08:38:46;;;;;;;5.13;3.70;;;;;;;;;;5978307;29;20244;-69
2023/07/02 08:41:50;;;;;;;4.72;4.43;;;;;;;;;;5978517;29;20560;-69
2023/07/02 08:44:55;;;;;;;5.55;4.72;;;;;;;;;;5978227;29;20260;-69
2023/07/02 08:48:02;;;;;;;4.65;4.30;;;;;;;;;;5977595;29;20414;-70
2023/07/02 08:51:07;;;;;;;4.13;3.92;;;;;;;;;;5977709;29;20248;-69
2023/07/02 08:54:11;;;;;;;4.65;4.38;;;;;;;;;;5977988;29;20253;-69
2023/07/02 08:57:16;;;;;;;4.30;4.20;;;;;;;;;;5977890;29;20248;-69
2023/07/02 09:00:21;;;;;;;5.10;4.53;;;;;;;;;;5977582;29;20309;-70
2023/07/02 09:03:27;;;;;;;4.38;4.25;;;;;;;;;;5977184;29;20244;-70
2023/07/02 09:06:32;;;;;;;4.57;4.15;;;;;;;;;;5980524;29;20247;-69
2023/07/02 09:09:47;;;;;;;4.78;4.35;;;;;;;;;;5983974;29;20459;-69
2023/07/02 09:12:51;;;;;;;4.60;4.40;;;;;;;;;;6000271;29;20256;-69
2023/07/02 09:15:56;;;;;;;4.53;4.32;;;;;;;;;;6000196;29;20295;-70
2023/07/02 09:19:04;;;;;;;5.03;4.72;;;;;;;;;;6000634;29;20247;-69
2023/07/02 09:22:08;;;;;;;5.10;4.88;;;;;;;;;;5999882;29;20275;-69
2023/07/02 09:25:13;;;;;;;5.47;5.05;;;;;;;;;;5999818;29;20348;-69
2023/07/02 09:28:22;;;;;;;5.38;5.07;;;;;;;;;;6000196;29;20243;-71
2023/07/02 09:31:27;;;;;;;4.78;4.57;;;;;;;;;;5999883;29;20279;-70
2023/07/02 09:34:34;;;;;;;4.60;4.43;;;;;;;;;;5999685;29;20244;-69
2023/07/02 09:37:41;;;;;;;4.90;4.60;;;;;;;;;;5999763;29;20248;-70
2023/07/02 09:40:48;;;;;;;3.90;3.70;;;;;;;;;;5999660;29;20275;-69
2023/07/02 09:43:53;;;;;;;5.25;4.78;;;;;;;;;;5999811;29;20263;-70
2023/07/02 09:47:04;;;;;;;5.85;5.65;;;;;;;;;;5999978;29;20340;-70
2023/07/02 09:50:11;;;;;;;5.20;4.97;;;;;;;;;;5992613;29;20243;-69
2023/07/02 09:53:15;;;;;;;5.82;5.63;;;;;;;;;;5999475;29;20259;-70
2023/07/02 09:56:21;;;;;;;4.95;4.80;;;;;;;;;;5999724;29;20256;-69
2023/07/02 09:59:26;;;;;;;5.05;4.85;;;;;;;;;;5999382;29;20267;-70
2023/07/02 10:02:31;;;;;;;5.00;4.70;;;;;;;;;;5999479;29;20328;-70
2023/07/02 10:05:36;;;;;;;4.88;4.53;;;;;;;;;;5999430;29;20247;-69
2023/07/02 10:08:41;;;;;;;4.32;3.92;;;;;;;;;;5980238;29;20252;-69
2023/07/02 10:11:46;;;;;;;5.07;4.70;;;;;;;;;;5976635;29;20248;-69
2023/07/02 10:14:52;;;;;;;5.63;5.32;;;;;;;;;;5980495;29;20400;-69
2023/07/02 10:17:58;;;;;;;5.22;4.90;;;;;;;;;;5958151;30;20246;-70
2023/07/02 10:21:15;;;;;;;5.70;4.70;;;;;;;;;;5958475;30;20494;-70
2023/07/02 10:24:20;;;;;;;11.95;8.60;;;;;;;;;;5958444;30;20410;-72
2023/07/02 10:27:35;;;;;;;5.65;5.28;;;;;;;;;;5958131;30;20320;-70
2023/07/02 10:30:40;;;;;;;5.63;5.43;;;;;;;;;;5958133;30;20246;-70
2023/07/02 10:33:45;;;;;;;6.00;5.70;;;;;;;;;;5958432;30;20249;-70
2023/07/02 10:36:55;;;;;;;5.72;5.53;;;;;;;;;;5958175;30;20245;-69
2023/07/02 10:40:00;;;;;;;6.18;5.78;;;;;;;;;;5958136;30;20245;-70
2023/07/02 10:43:04;;;;;;;5.80;5.60;;;;;;;;;;5957992;30;20273;-69
2023/07/02 10:46:09;;;;;;;5.57;5.35;;;;;;;;;;5958184;30;20249;-68
2023/07/02 10:49:14;;;;;;;5.30;5.10;;;;;;;;;;5958067;30;20257;-70
2023/07/02 10:52:20;;;;;;;6.00;5.60;;;;;;;;;;5957874;30;20313;-69
2023/07/02 10:55:25;;;;;;;5.55;5.35;;;;;;;;;;5957461;30;20441;-70
2023/07/02 10:58:30;;;;;;;5.32;5.18;;;;;;;;;;5957891;30;20256;-69
2023/07/02 11:01:34;;;;;;;4.38;4.28;;;;;;;;;;5957406;30;20277;-69
2023/07/02 11:04:39;;;;;;;4.63;4.35;;;;;;;;;;5957144;30;20249;-70
2023/07/02 11:07:45;;;;;;;4.20;3.90;;;;;;;;;;5968991;29;20248;-70
2023/07/02 11:10:50;;;;;;;4.28;3.97;;;;;;;;;;5980137;29;20494;-69
2023/07/02 11:13:55;;;;;;;4.20;4.10;;;;;;;;;;5980041;29;20252;-69
2023/07/02 11:17:02;;;;;;;4.20;4.00;;;;;;;;;;5994764;29;20585;-69
2023/07/02 11:20:08;;;;;;;4.90;4.30;;;;;;;;;;5985991;29;20287;-70
2023/07/02 11:23:22;;;;;;;134.43;7.43;;;;;;;;;;6001822;29;20461;-69
2023/07/02 11:26:37;;;;;;;4.00;3.90;;;;;;;;;;6001148;29;20240;-70
2023/07/02 11:29:41;;;;;;;3.30;3.20;;;;;;;;;;6001999;29;20322;-69
2023/07/02 11:32:50;;;;;;;2.65;2.65;;;;;;;;;;6001686;29;20252;-69
2023/07/02 11:35:55;;;;;;;3.08;2.97;;;;;;;;;;6001995;29;20249;-70
2023/07/02 11:39:02;;;;;;;3.50;3.28;;;;;;;;;;6001909;29;20247;-70
2023/07/02 11:42:07;;;;;;;4.78;4.38;;;;;;;;;;5994249;29;20443;-69
2023/07/02 11:45:12;;;;;;;4.60;4.20;;;;;;;;;;6001459;29;20239;-68
2023/07/02 11:48:16;;;;;;;5.35;4.00;;;;;;;;;;6001294;29;20251;-71
2023/07/02 11:51:21;;;;;;;9.02;4.68;;;;;;;;;;6001314;29;20251;-69
2023/07/02 11:54:27;;;;;;;7.70;5.00;;;;;;;;;;6001501;29;20251;-69
2023/07/02 11:57:32;;;;;;;5.70;4.20;;;;;;;;;;6001602;29;20247;-68
2023/07/02 12:00:36;;;;;;;4.07;3.78;;;;;;;;;;6001359;29;20251;-69
2023/07/02 12:03:41;;;;;;;4.05;3.80;;;;;;;;;;6000901;29;20319;-68
2023/07/02 12:06:46;;;;;;;4.32;3.85;;;;;;;;;;5996962;29;20248;-70
2023/07/02 12:09:51;;;;;;;3.92;3.63;;;;;;;;;;5978311;29;20485;-70
2023/07/02 12:12:56;;;;;;;3.55;3.45;;;;;;;;;;5978590;29;20253;-69
2023/07/02 12:16:01;;;;;;;4.50;4.20;;;;;;;;;;5978759;29;20295;-69
2023/07/02 12:19:05;;;;;;;5.15;5.03;;;;;;;;;;5978587;29;20249;-69
2023/07/02 12:22:10;;;;;;;5.18;4.90;;;;;;;;;;5978585;29;20253;-69
2023/07/02 12:25:16;;;;;;;5.20;5.00;;;;;;;;;;5962822;29;20279;-69
2023/07/02 12:28:20;;;;;;;3.67;3.58;;;;;;;;;;5977880;29;20248;-69
2023/07/02 12:31:25;;;;;;;4.20;3.90;;;;;;;;;;5978472;29;20248;-69
2023/07/02 12:34:30;;;;;;;3.13;3.03;;;;;;;;;;5978087;29;20244;-69
2023/07/02 12:37:34;;;;;;;4.00;3.70;;;;;;;;;;5978267;29;20252;-71
2023/07/02 12:40:40;;;;;;;5.35;3.53;;;;;;;;;;5978081;29;20272;-70
2023/07/02 12:43:45;;;;;;;3.35;3.25;;;;;;;;;;5977837;29;20580;-69
2023/07/02 12:46:49;;;;;;;3.42;3.30;;;;;;;;;;5978185;29;20244;-70
2023/07/02 12:49:54;;;;;;;3.05;2.90;;;;;;;;;;5977766;29;20298;-69
2023/07/02 12:52:59;;;;;;;2.42;2.35;;;;;;;;;;5978607;29;20290;-70
2023/07/02 12:56:05;;;;;;;2.30;2.30;;;;;;;;;;5977511;29;20272;-69
2023/07/02 12:59:10;;;;;;;2.13;2.05;;;;;;;;;;5977529;29;20244;-70
2023/07/02 13:02:15;;;;;;;2.65;2.50;;;;;;;;;;5977458;29;20253;-69
2023/07/02 13:05:19;;;;;;;2.90;2.70;;;;;;;;;;5977711;29;20249;-70
2023/07/02 13:08:24;;;;;;;2.83;2.72;;;;;;;;;;5994754;29;20272;-71
2023/07/02 13:11:30;;;;;;;2.95;2.85;;;;;;;;;;5999890;29;20390;-69
2023/07/02 13:14:35;;;;;;;1.80;1.80;;;;;;;;;;6000256;29;20335;-69
2023/07/02 13:17:41;;;;;;;2.15;2.05;;;;;;;;;;5999781;29;20303;-70
2023/07/02 13:20:47;;;;;;;2.00;2.00;;;;;;;;;;5999866;29;20304;-69
2023/07/02 13:23:51;;;;;;;2.33;2.30;;;;;;;;;;5983863;29;20299;-70
2023/07/02 13:26:57;;;;;;;2.50;2.35;;;;;;;;;;6000515;29;20251;-68
2023/07/02 13:30:02;;;;;;;3.83;3.40;;;;;;;;;;5999958;29;20253;-69
2023/07/02 13:33:06;;;;;;;3.08;2.55;;;;;;;;;;5999745;29;20580;-69
2023/07/02 13:36:11;;;;;;;3.20;3.00;;;;;;;;;;6000234;29;20510;-70
2023/07/02 13:39:16;;;;;;;2.90;2.80;;;;;;;;;;5999820;29;20259;-70
2023/07/02 13:42:22;;;;;;;3.20;3.10;;;;;;;;;;6000039;29;20264;-70
2023/07/02 13:45:26;;;;;;;3.47;3.20;;;;;;;;;;5999771;29;20343;-70
2023/07/02 13:48:31;;;;;;;3.22;3.13;;;;;;;;;;6002083;29;20251;-69
2023/07/02 13:51:36;;;;;;;3.00;2.85;;;;;;;;;;6004125;29;20247;-69
2023/07/02 13:54:41;;;;;;;4.03;3.08;;;;;;;;;;6004099;29;20247;-69
2023/07/02 13:57:47;;;;;;;2.80;2.80;;;;;;;;;;6003762;29;20243;-70
2023/07/02 14:00:52;;;;;;;2.90;2.90;;;;;;;;;;6004279;29;20328;-69
2023/07/02 14:03:57;;;;;;;2.97;2.88;;;;;;;;;;6003777;29;20567;-68
2023/07/02 14:07:03;;;;;;;3.08;3.05;;;;;;;;;;5997581;29;20286;-69
2023/07/02 14:10:08;;;;;;;3.42;3.33;;;;;;;;;;5981375;29;20244;-68
2023/07/02 14:13:13;;;;;;;3.58;3.47;;;;;;;;;;5981555;29;20244;-69
2023/07/02 14:16:19;;;;;;;3.13;3.00;;;;;;;;;;5981213;29;20565;-68
2023/07/02 14:19:23;;;;;;;2.75;2.55;;;;;;;;;;5981380;29;20249;-70
2023/07/02 14:22:28;;;;;;;2.42;2.30;;;;;;;;;;5981419;29;20257;-70
2023/07/02 14:25:32;;;;;;;2.72;2.53;;;;;;;;;;5981117;29;20272;-70
2023/07/02 14:28:45;;;;;;;1.70;1.60;;;;;;;;;;5980989;29;20256;-70
2023/07/02 14:31:51;;;;;;;1.48;1.48;;;;;;;;;;5981206;29;20240;-69
2023/07/02 14:34:55;;;;;;;1.50;1.50;;;;;;;;;;5980887;29;20264;-71
2023/07/02 14:38:00;;;;;;;2.95;2.08;;;;;;;;;;5980417;29;20511;-70
2023/07/02 14:41:05;;;;;;;1.90;1.80;;;;;;;;;;5980750;29;20252;-70
2023/07/02 14:44:09;;;;;;;3.13;2.10;;;;;;;;;;5980747;29;20556;-70
2023/07/02 14:47:15;;;;;;;2.70;2.50;;;;;;;;;;5980570;29;20264;-70
2023/07/02 14:50:20;;;;;;;2.55;2.10;;;;;;;;;;5980500;29;20247;-69
2023/07/02 14:53:25;;;;;;;1.90;1.80;;;;;;;;;;5980614;29;20260;-69
2023/07/02 14:56:30;;;;;;;2.47;2.28;;;;;;;;;;5980569;29;20244;-69
2023/07/02 14:59:34;;;;;;;2.42;2.28;;;;;;;;;;5979141;29;20252;-69
2023/07/02 15:02:40;;;;;;;3.70;2.05;;;;;;;;;;5981011;29;20244;-68
2023/07/02 15:05:46;;;;;;;3.10;1.90;;;;;;;;;;5981218;29;20280;-69
2023/07/02 15:08:52;;;;;;;3.75;1.92;;;;;;;;;;5999934;29;20244;-70
2023/07/02 15:11:56;;;;;;;1.63;1.50;;;;;;;;;;6002413;29;20253;-70
2023/07/02 15:15:01;;;;;;;2.00;1.90;;;;;;;;;;6002613;29;20272;-69
2023/07/02 15:18:07;;;;;;;1.92;1.83;;;;;;;;;;6002749;29;20252;-70
2023/07/02 15:21:13;;;;;;;3.25;1.70;;;;;;;;;;6002734;29;20237;-69
2023/07/02 15:24:17;;;;;;;2.15;1.90;;;;;;;;;;6002996;29;20426;-69
2023/07/02 15:27:22;;;;;;;1.75;1.67;;;;;;;;;;6002283;29;20307;-70
2023/07/02 15:30:26;;;;;;;2.28;2.13;;;;;;;;;;6002726;29;20537;-70
2023/07/02 15:33:33;;;;;;;1.92;1.92;;;;;;;;;;6002107;29;20243;-70
2023/07/02 15:36:37;;;;;;;2.15;2.10;;;;;;;;;;6001901;29;20457;-69
2023/07/02 15:39:42;;;;;;;2.33;2.13;;;;;;;;;;6001915;29;20239;-70
2023/07/02 15:42:47;;;;;;;2.47;2.33;;;;;;;;;;6001792;29;20256;-70
2023/07/02 15:45:53;;;;;;;3.03;2.20;;;;;;;;;;6002178;29;20267;-70
2023/07/02 15:49:01;;;;;;;2.47;2.20;;;;;;;;;;6001928;29;20254;-71
2023/07/02 15:52:06;;;;;;;2.30;2.17;;;;;;;;;;5994693;29;20256;-70
2023/07/02 15:55:10;;;;;;;3.08;2.58;;;;;;;;;;6002034;29;20402;-70
2023/07/02 15:58:15;;;;;;;2.50;2.30;;;;;;;;;;6002157;29;20240;-70
2023/07/02 16:01:20;;;;;;;4.55;2.40;;;;;;;;;;6001881;29;20260;-69
2023/07/02 16:04:26;;;;;;;3.92;2.33;;;;;;;;;;6001467;29;20276;-69
2023/07/02 16:07:31;;;;;;;2.78;2.67;;;;;;;;;;5991351;29;20240;-69
2023/07/02 16:10:36;;;;;;;2.92;2.65;;;;;;;;;;5978222;29;20443;-69
2023/07/02 16:13:42;;;;;;;2.88;2.67;;;;;;;;;;5978232;29;20272;-69
2023/07/02 16:16:53;;;;;;;2.70;2.60;;;;;;;;;;5978827;29;20288;-68
2023/07/02 16:19:59;;;;;;;2.55;2.38;;;;;;;;;;5978871;29;20260;-71
2023/07/02 16:23:05;;;;;;;3.53;3.08;;;;;;;;;;5978718;29;20248;-70
2023/07/02 16:26:11;;;;;;;3.47;2.85;;;;;;;;;;5978391;29;20560;-69
2023/07/02 16:29:16;;;;;;;3.55;3.15;;;;;;;;;;5978232;29;20248;-69
2023/07/02 16:32:24;;;;;;;3.08;2.67;;;;;;;;;;5978044;29;20252;-69
2023/07/02 16:35:30;;;;;;;2.83;2.70;;;;;;;;;;5978149;29;20257;-71
2023/07/02 16:38:35;;;;;;;2.92;2.70;;;;;;;;;;5977948;29;20256;-70
2023/07/02 16:41:45;;;;;;;3.72;3.00;;;;;;;;;;5978114;29;20529;-69
2023/07/02 16:44:50;;;;;;;3.13;2.90;;;;;;;;;;5978310;29;20365;-69
2023/07/02 16:47:55;;;;;;;3.53;2.92;;;;;;;;;;5977975;29;20324;-69
2023/07/02 16:51:04;;;;;;;2.53;2.40;;;;;;;;;;5977750;29;20244;-70
2023/07/02 16:54:14;;;;;;;3.25;2.35;;;;;;;;;;5978055;29;20528;-69
2023/07/02 16:57:19;;;;;;;3.05;2.95;;;;;;;;;;5977653;29;20256;-69
2023/07/02 17:00:23;;;;;;;3.00;2.45;;;;;;;;;;5977664;29;20481;-69
2023/07/02 17:03:28;;;;;;;6.22;2.88;;;;;;;;;;5977968;29;20249;-69
2023/07/02 17:06:34;;;;;;;3.22;2.97;;;;;;;;;;5980763;29;20263;-69
2023/07/02 17:09:40;;;;;;;3.97;2.88;;;;;;;;;;6000892;29;20293;-70
2023/07/02 17:12:45;;;;;;;3.42;3.25;;;;;;;;;;6000784;29;20244;-69
2023/07/02 17:15:50;;;;;;;3.08;2.92;;;;;;;;;;6000227;29;20307;-69
2023/07/02 17:18:54;;;;;;;2.78;2.72;;;;;;;;;;6000622;29;20248;-69
2023/07/02 17:22:00;;;;;;;3.15;2.95;;;;;;;;;;6000594;29;20247;-70
2023/07/02 17:25:06;;;;;;;3.20;2.70;;;;;;;;;;6004947;29;20255;-70
2023/07/02 17:28:11;;;;;;;3.88;2.83;;;;;;;;;;6005140;29;20248;-68
2023/07/02 17:31:15;;;;;;;3.08;2.75;;;;;;;;;;6004722;29;20436;-70
2023/07/02 17:34:22;;;;;;;2.80;2.63;;;;;;;;;;6004918;29;20248;-69
2023/07/02 17:37:28;;;;;;;3.30;3.10;;;;;;;;;;6004401;29;20442;-69
2023/07/02 17:40:33;;;;;;;3.28;2.97;;;;;;;;;;6004533;29;20536;-70
2023/07/02 17:43:38;;;;;;;5.47;2.80;;;;;;;;;;6005283;29;20244;-69
2023/07/02 17:46:42;;;;;;;7.93;2.92;;;;;;;;;;6004045;29;20275;-69
2023/07/02 17:49:49;;;;;;;4.13;2.83;;;;;;;;;;6004565;29;20427;-70
2023/07/02 17:52:55;;;;;;;3.42;2.70;;;;;;;;;;6004323;29;20272;-70
2023/07/02 17:55:59;;;;;;;3.03;2.78;;;;;;;;;;6004328;29;20305;-70
2023/07/02 17:59:06;;;;;;;2.83;2.33;;;;;;;;;;6003878;29;20433;-68
2023/07/02 18:02:11;;;;;;;4.05;2.45;;;;;;;;;;6004246;29;20505;-69
2023/07/02 18:05:16;;;;;;;3.05;2.60;;;;;;;;;;6003878;29;20251;-70
2023/07/02 18:08:23;;;;;;;2.60;2.40;;;;;;;;;;5987719;29;20244;-70
2023/07/02 18:11:28;;;;;;;2.47;2.35;;;;;;;;;;5981307;29;20268;-69
2023/07/02 18:14:32;;;;;;;2.72;2.38;;;;;;;;;;5981489;29;20430;-70
2023/07/02 18:17:37;;;;;;;2.55;2.45;;;;;;;;;;5981477;29;20600;-70
2023/07/02 18:20:41;;;;;;;2.75;2.55;;;;;;;;;;5981061;29;20392;-69
2023/07/02 18:23:48;;;;;;;2.75;2.65;;;;;;;;;;5980807;29;20261;-70
2023/07/02 18:26:52;;;;;;;3.58;2.70;;;;;;;;;;5980611;29;20325;-69
2023/07/02 18:29:57;;;;;;;3.08;2.40;;;;;;;;;;5981055;29;20252;-69
2023/07/02 18:33:01;;;;;;;3.22;2.65;;;;;;;;;;5980813;29;20256;-70